createdAt,value
2023-02-14T00:00:36.808Z,77.84
2023-02-14T00:03:03.377Z,77.03
2023-02-14T00:05:29.927Z,76.43
2023-02-14T00:07:56.441Z,75.75
2023-02-14T00:10:23.119Z,76.06
2023-02-14T00:12:49.583Z,76.19
2023-02-14T00:15:22.178Z,76.41
2023-02-14T00:17:49.368Z,75.38
2023-02-14T00:20:15.960Z,73.75
2023-02-14T00:22:42.409Z,74.10
2023-02-14T00:25:08.827Z,74.01
2023-02-14T00:27:35.446Z,74.41
2023-02-14T00:30:04.988Z,73.79
2023-02-14T00:32:31.465Z,72.97
2023-02-14T00:34:57.894Z,72.79
2023-02-14T00:37:24.443Z,72.71
2023-02-14T00:39:50.871Z,73.11
2023-02-14T00:42:17.297Z,72.77
2023-02-14T00:44:43.786Z,72.31
2023-02-14T00:47:10.212Z,72.11
2023-02-14T00:49:36.682Z,71.78
2023-02-14T00:52:03.317Z,72.56
2023-02-14T00:54:29.741Z,72.42
2023-02-14T00:56:56.172Z,72.91
2023-02-14T00:59:22.612Z,72.51
2023-02-14T01:01:49.073Z,73.02
2023-02-14T01:04:15.494Z,72.61
2023-02-14T01:06:41.927Z,72.82
2023-02-14T01:09:08.361Z,72.71
2023-02-14T01:11:34.954Z,72.60
2023-02-14T01:14:01.457Z,72.16
2023-02-14T01:16:28.255Z,72.79
2023-02-14T01:18:54.792Z,72.97
2023-02-14T01:21:21.251Z,73.13
2023-02-14T01:23:48.543Z,73.67
2023-02-14T01:26:15.229Z,73.70
2023-02-14T01:28:41.810Z,73.92
2023-02-14T01:31:11.693Z,73.87
2023-02-14T01:33:38.483Z,73.62
2023-02-14T01:36:05.007Z,73.59
2023-02-14T01:38:31.419Z,73.49
2023-02-14T01:40:58.374Z,73.50
2023-02-14T01:43:25.449Z,74.60
2023-02-14T01:45:52.396Z,74.56
2023-02-14T01:48:19.509Z,74.91
2023-02-14T01:50:45.946Z,74.68
2023-02-14T01:53:14.298Z,74.50
2023-02-14T01:55:42.465Z,75.24
2023-02-14T01:58:09.881Z,74.19
2023-02-14T02:00:54.967Z,74.92
2023-02-14T02:03:21.448Z,74.39
2023-02-14T02:05:48.690Z,75.35
2023-02-14T02:08:15.167Z,74.61
2023-02-14T02:10:41.624Z,74.53
2023-02-14T02:13:08.411Z,75.20
2023-02-14T02:16:04.426Z,75.61
2023-02-14T02:18:36.420Z,74.84
2023-02-14T02:21:02.857Z,75.14
2023-02-14T02:23:31.186Z,75.10
2023-02-14T02:26:00.780Z,75.40
2023-02-14T02:28:46.071Z,75.83
2023-02-14T02:31:12.747Z,74.78
2023-02-14T02:33:58.040Z,74.91
2023-02-14T02:36:33.618Z,75.41
2023-02-14T02:39:11.203Z,74.54
2023-02-14T02:41:57.131Z,74.72
2023-02-14T02:44:32.952Z,74.05
2023-02-14T02:47:14.722Z,74.95
2023-02-14T02:49:59.724Z,73.78
2023-02-14T02:52:58.759Z,73.81
2023-02-14T02:55:55.763Z,74.10
2023-02-14T02:58:22.904Z,74.08
2023-02-14T03:00:50.435Z,73.81
2023-02-14T03:03:35.593Z,72.68
2023-02-14T03:06:02.014Z,72.39
2023-02-14T03:08:28.440Z,72.15
2023-02-14T03:10:54.914Z,72.26
2023-02-14T03:13:21.496Z,72.46
2023-02-14T03:15:48.155Z,73.10
2023-02-14T03:18:35.113Z,73.24
2023-02-14T03:21:16.855Z,73.44
2023-02-14T03:23:43.305Z,72.93
2023-02-14T03:26:42.220Z,72.80
2023-02-14T03:29:14.842Z,71.81
2023-02-14T03:31:53.028Z,71.38
2023-02-14T03:34:22.550Z,71.98
2023-02-14T03:36:50.738Z,72.42
2023-02-14T03:39:27.898Z,72.81
2023-02-14T03:41:57.203Z,72.47
2023-02-14T03:44:25.852Z,72.46
2023-02-14T03:46:53.195Z,71.78
2023-02-14T03:49:21.656Z,71.45
2023-02-14T03:51:48.804Z,72.15
2023-02-14T03:54:15.272Z,71.97
2023-02-14T03:56:46.273Z,72.28
2023-02-14T03:59:16.904Z,72.54
2023-02-14T04:01:51.038Z,73.29
2023-02-14T04:04:18.378Z,73.69
2023-02-14T04:06:44.809Z,73.72
2023-02-14T04:09:11.265Z,73.42
2023-02-14T04:11:38.765Z,73.32
2023-02-14T04:14:05.266Z,73.77
2023-02-14T04:16:51.657Z,74.25
2023-02-14T04:19:24.154Z,74.42
2023-02-14T04:21:51.023Z,75.13
2023-02-14T04:24:17.534Z,74.59
2023-02-14T04:26:54.089Z,74.15
2023-02-14T04:29:21.202Z,74.11
2023-02-14T04:31:47.826Z,74.55
2023-02-14T04:34:14.497Z,74.77
2023-02-14T04:36:40.938Z,74.50
2023-02-14T04:39:07.437Z,75.32
2023-02-14T04:41:59.836Z,74.29
2023-02-14T04:44:26.361Z,73.52
2023-02-14T04:46:53.025Z,73.14
2023-02-14T04:49:19.777Z,72.76
2023-02-14T04:51:46.332Z,73.01
2023-02-14T04:54:12.796Z,72.57
2023-02-14T04:56:39.307Z,72.66
2023-02-14T04:59:05.824Z,73.23
2023-02-14T05:01:32.368Z,73.21
2023-02-14T05:03:58.825Z,72.62
2023-02-14T05:06:25.347Z,72.18
2023-02-14T05:08:51.788Z,72.93
2023-02-14T05:11:18.242Z,72.95
2023-02-14T05:13:44.674Z,73.33
2023-02-14T05:16:11.212Z,72.96
2023-02-14T05:18:37.730Z,72.07
2023-02-14T05:21:04.196Z,71.48
2023-02-14T05:23:30.643Z,71.74
2023-02-14T05:25:57.153Z,71.89
2023-02-14T05:28:23.615Z,72.02
2023-02-14T05:30:50.386Z,72.14
2023-02-14T05:33:16.938Z,72.41
2023-02-14T05:35:58.822Z,72.97
2023-02-14T05:38:25.328Z,73.08
2023-02-14T05:40:51.747Z,72.46
2023-02-14T05:43:18.254Z,71.92
2023-02-14T05:45:44.931Z,72.06
2023-02-14T05:48:11.437Z,72.29
2023-02-14T05:50:37.906Z,72.25
2023-02-14T05:53:05.129Z,71.97
2023-02-14T05:55:31.572Z,72.45
2023-02-14T05:57:58.001Z,72.32
2023-02-14T06:00:24.919Z,72.02
2023-02-14T06:02:51.391Z,71.84
2023-02-14T06:05:18.374Z,71.55
2023-02-14T06:07:50.654Z,72.13
2023-02-14T06:10:17.972Z,71.54
2023-02-14T06:12:44.746Z,72.25
2023-02-14T06:15:11.232Z,72.19
2023-02-14T06:17:37.674Z,71.43
2023-02-14T06:20:04.190Z,71.54
2023-02-14T06:22:30.841Z,71.46
2023-02-14T06:24:57.304Z,71.92
2023-02-14T06:27:23.729Z,71.77
2023-02-14T06:29:50.421Z,71.98
2023-02-14T06:32:17.080Z,71.76
2023-02-14T06:34:43.601Z,71.38
2023-02-14T06:37:10.098Z,72.00
2023-02-14T06:39:36.570Z,71.79
2023-02-14T06:42:03.061Z,72.09
2023-02-14T06:44:29.515Z,70.71
2023-02-14T06:46:55.969Z,71.04
2023-02-14T06:49:22.401Z,71.40
2023-02-14T06:51:48.858Z,70.87
2023-02-14T06:54:15.348Z,70.82
2023-02-14T06:56:41.967Z,71.03
2023-02-14T06:59:08.642Z,71.45
2023-02-14T07:01:35.110Z,71.60
2023-02-14T07:04:01.580Z,71.17
2023-02-14T07:06:28.103Z,71.48
2023-02-14T07:08:54.534Z,71.53
2023-02-14T07:11:21.032Z,70.91
2023-02-14T07:13:49.402Z,70.68
2023-02-14T07:16:15.999Z,71.22
2023-02-14T07:18:42.536Z,70.82
2023-02-14T07:21:08.985Z,70.33
2023-02-14T07:23:36.230Z,70.76
2023-02-14T07:26:03.259Z,71.01
2023-02-14T07:28:30.728Z,70.91
2023-02-14T07:31:01.712Z,71.46
2023-02-14T07:33:28.832Z,71.18
2023-02-14T07:35:55.681Z,71.10
2023-02-14T07:38:22.487Z,71.58
2023-02-14T07:40:49.513Z,70.97
2023-02-14T07:43:16.346Z,70.70
2023-02-14T07:45:42.777Z,70.31
2023-02-14T07:48:09.199Z,69.92
2023-02-14T07:50:35.674Z,70.30
2023-02-14T07:53:02.481Z,69.41
2023-02-14T07:55:29.667Z,69.69
2023-02-14T07:57:56.637Z,69.58
2023-02-14T08:00:23.530Z,69.43
2023-02-14T08:02:50.370Z,68.93
2023-02-14T08:05:17.485Z,69.38
2023-02-14T08:07:44.777Z,69.17
2023-02-14T08:10:13.085Z,68.13
2023-02-14T08:12:59.024Z,69.16
2023-02-14T08:15:48.073Z,69.73
2023-02-14T08:18:14.594Z,69.39
2023-02-14T08:20:41.496Z,69.78
2023-02-14T08:23:07.966Z,70.36
2023-02-14T08:25:34.667Z,70.21
2023-02-14T08:28:01.883Z,70.53
2023-02-14T08:30:28.476Z,70.05
2023-02-14T08:32:55.087Z,69.77
2023-02-14T08:35:21.576Z,69.97
2023-02-14T08:37:48.002Z,69.73
2023-02-14T08:40:14.610Z,69.57
2023-02-14T08:42:41.146Z,69.40
2023-02-14T08:45:07.800Z,69.31
2023-02-14T08:47:36.090Z,68.63
2023-02-14T08:50:03.025Z,68.83
2023-02-14T08:52:29.482Z,68.46
2023-02-14T08:54:56.002Z,68.96
2023-02-14T08:57:22.568Z,69.71
2023-02-14T08:59:49.073Z,69.21
2023-02-14T09:02:16.401Z,69.41
2023-02-14T09:04:42.821Z,69.69
2023-02-14T09:07:09.367Z,69.34
2023-02-14T09:09:35.802Z,69.25
2023-02-14T09:12:05.870Z,68.60
2023-02-14T09:14:45.498Z,68.66
2023-02-14T09:17:12.521Z,69.30
2023-02-14T09:19:39.072Z,69.32
2023-02-14T09:22:06.037Z,69.71
2023-02-14T09:24:32.856Z,69.44
2023-02-14T09:26:59.358Z,68.83
2023-02-14T09:29:25.988Z,67.85
2023-02-14T09:31:53.269Z,68.93
2023-02-14T09:34:38.426Z,68.00
2023-02-14T09:37:06.415Z,68.62
2023-02-14T09:39:32.954Z,69.18
2023-02-14T09:42:05.828Z,68.50
2023-02-14T09:44:32.281Z,68.57
2023-02-14T09:47:01.155Z,68.34
2023-02-14T09:49:34.692Z,68.81
2023-02-14T09:52:02.160Z,68.00
2023-02-14T09:54:28.723Z,68.06
2023-02-14T09:57:21.931Z,67.12
2023-02-14T10:00:03.177Z,67.53
2023-02-14T10:02:36.524Z,66.61
2023-02-14T10:05:14.992Z,66.43
2023-02-14T10:08:07.895Z,66.83
2023-02-14T10:10:41.582Z,65.41
2023-02-14T10:13:14.807Z,66.27
2023-02-14T10:15:49.014Z,65.81
2023-02-14T10:18:30.236Z,66.70
2023-02-14T10:20:57.893Z,66.85
2023-02-14T10:23:27.806Z,67.13
2023-02-14T10:25:57.492Z,66.31
2023-02-14T10:28:26.980Z,66.27
2023-02-14T10:31:00.084Z,65.76
2023-02-14T10:33:28.632Z,65.53
2023-02-14T10:35:57.384Z,65.38
2023-02-14T10:38:33.311Z,64.82
2023-02-14T10:41:03.842Z,64.45
2023-02-14T10:43:36.834Z,65.73
2023-02-14T10:46:18.765Z,65.99
2023-02-14T10:48:54.511Z,64.56
2023-02-14T10:51:33.477Z,65.23
2023-02-14T10:54:19.191Z,65.41
2023-02-14T10:56:50.467Z,65.94
2023-02-14T10:59:22.199Z,65.66
2023-02-14T11:01:49.239Z,64.86
2023-02-14T11:04:15.918Z,63.96
2023-02-14T11:06:42.448Z,64.28
2023-02-14T11:09:10.101Z,63.86
2023-02-14T11:11:37.966Z,63.13
2023-02-14T11:14:23.228Z,63.21
2023-02-14T11:16:52.042Z,63.48
2023-02-14T11:19:24.758Z,63.10
2023-02-14T11:21:51.700Z,63.40
2023-02-14T11:24:18.794Z,63.78
2023-02-14T11:26:46.064Z,63.58
2023-02-14T11:29:13.136Z,63.83
2023-02-14T11:31:39.909Z,63.75
2023-02-14T11:34:12.906Z,64.46
2023-02-14T11:37:17.361Z,64.12
2023-02-14T11:39:44.008Z,63.54
2023-02-14T11:42:11.096Z,63.71
2023-02-14T11:44:44.039Z,64.04
2023-02-14T11:47:18.056Z,64.69
2023-02-14T11:49:53.951Z,64.95
2023-02-14T11:52:26.503Z,65.03
2023-02-14T11:54:53.276Z,64.55
2023-02-14T11:57:19.730Z,65.11
2023-02-14T11:59:53.365Z,64.60
2023-02-14T12:02:19.893Z,65.00
2023-02-14T12:04:46.942Z,65.23
2023-02-14T12:07:14.520Z,64.74
2023-02-14T12:09:42.753Z,64.19
2023-02-14T12:12:16.566Z,63.90
2023-02-14T12:14:43.017Z,64.18
2023-02-14T12:17:16.016Z,63.55
2023-02-14T12:19:45.022Z,64.21
2023-02-14T12:22:13.259Z,64.36
2023-02-14T12:24:42.414Z,64.95
2023-02-14T12:27:26.148Z,64.38
2023-02-14T12:30:17.102Z,64.32
2023-02-14T12:32:46.038Z,64.65
2023-02-14T12:35:19.653Z,64.13
2023-02-14T12:38:02.733Z,65.10
2023-02-14T12:40:49.354Z,64.79
2023-02-14T12:43:34.590Z,64.63
2023-02-14T12:46:14.189Z,64.48
2023-02-14T12:48:49.970Z,64.33
2023-02-14T12:51:22.901Z,64.53
2023-02-14T12:54:08.063Z,64.48
2023-02-14T12:56:34.481Z,64.73
2023-02-14T12:59:13.036Z,65.17
2023-02-14T13:01:45.610Z,64.79
2023-02-14T13:04:15.312Z,64.95
2023-02-14T13:06:43.600Z,64.58
2023-02-14T13:09:13.073Z,65.31
2023-02-14T13:11:41.836Z,66.10
2023-02-14T13:14:20.569Z,65.76
2023-02-14T13:17:07.339Z,65.78
2023-02-14T13:19:33.766Z,64.61
2023-02-14T13:22:00.300Z,64.77
2023-02-14T13:24:30.868Z,64.22
2023-02-14T13:27:16.879Z,64.32
2023-02-14T13:29:44.197Z,64.48
2023-02-14T13:32:10.894Z,64.52
2023-02-14T13:34:41.834Z,64.35
2023-02-14T13:37:09.743Z,63.91
2023-02-14T13:39:40.133Z,63.92
2023-02-14T13:42:07.071Z,63.24
2023-02-14T13:44:43.829Z,64.11
2023-02-14T13:47:36.674Z,64.67
2023-02-14T13:50:03.703Z,65.12
2023-02-14T13:52:40.398Z,64.87
2023-02-14T13:55:07.487Z,65.26
2023-02-14T13:57:36.557Z,64.55
2023-02-14T14:00:21.964Z,65.01
2023-02-14T14:02:52.065Z,65.46
2023-02-14T14:05:30.736Z,65.30
2023-02-14T14:08:15.933Z,65.20
2023-02-14T14:10:45.490Z,65.99
2023-02-14T14:13:31.881Z,65.82
2023-02-14T14:16:18.401Z,65.51
2023-02-14T14:18:44.981Z,64.96
2023-02-14T14:21:15.686Z,64.61
2023-02-14T14:23:42.186Z,64.75
2023-02-14T14:26:27.574Z,63.80
2023-02-14T14:28:54.099Z,64.62
2023-02-14T14:31:20.748Z,64.91
2023-02-14T14:33:47.225Z,65.14
2023-02-14T14:36:21.476Z,65.13
2023-02-14T14:38:51.025Z,64.65
2023-02-14T14:41:17.705Z,64.30
2023-02-14T14:43:44.319Z,64.92
2023-02-14T14:46:11.454Z,65.38
2023-02-14T14:48:42.759Z,65.62
2023-02-14T14:51:10.249Z,64.67
2023-02-14T14:53:50.792Z,65.80
2023-02-14T14:56:21.350Z,65.26
2023-02-14T14:58:47.792Z,65.32
2023-02-14T15:01:28.080Z,65.18
2023-02-14T15:03:55.041Z,65.40
2023-02-14T15:06:21.742Z,66.50
2023-02-14T15:08:48.722Z,66.38
2023-02-14T15:11:40.942Z,66.45
2023-02-14T15:14:09.367Z,66.60
2023-02-14T15:16:42.293Z,65.81
2023-02-14T15:19:16.126Z,65.98
2023-02-14T15:21:44.621Z,66.22
2023-02-14T15:24:12.781Z,66.44
2023-02-14T15:26:39.223Z,65.84
2023-02-14T15:29:06.185Z,65.83
2023-02-14T15:31:37.144Z,66.23
2023-02-14T15:34:06.952Z,66.27
2023-02-14T15:36:33.781Z,66.57
2023-02-14T15:39:01.031Z,66.71
2023-02-14T15:41:27.672Z,67.08
2023-02-14T15:43:55.600Z,66.64
2023-02-14T15:46:52.509Z,67.00
2023-02-14T15:49:19.934Z,67.32
2023-02-14T15:51:47.389Z,67.34
2023-02-14T15:54:21.416Z,67.37
2023-02-14T15:56:49.364Z,66.99
2023-02-14T15:59:31.009Z,67.37
2023-02-14T16:01:58.395Z,67.28
2023-02-14T16:04:25.901Z,67.58
2023-02-14T16:07:11.208Z,66.93
2023-02-14T16:09:37.866Z,67.23
2023-02-14T16:12:33.845Z,67.08
2023-02-14T16:15:00.914Z,67.34
2023-02-14T16:17:34.603Z,67.89
2023-02-14T16:20:20.650Z,67.53
2023-02-14T16:22:47.374Z,68.22
2023-02-14T16:25:13.848Z,67.47
2023-02-14T16:27:40.707Z,68.02
2023-02-14T16:30:07.692Z,67.25
2023-02-14T16:32:34.662Z,67.43
2023-02-14T16:35:01.246Z,67.69
2023-02-14T16:37:31.666Z,67.40
2023-02-14T16:39:58.248Z,68.36
2023-02-14T16:42:24.823Z,67.97
2023-02-14T16:44:51.358Z,67.74
2023-02-14T16:47:18.415Z,68.05
2023-02-14T16:49:45.125Z,68.59
2023-02-14T16:52:16.466Z,68.45
2023-02-14T16:54:42.980Z,69.00
2023-02-14T16:57:11.715Z,68.54
2023-02-14T16:59:38.350Z,69.10
2023-02-14T17:02:04.838Z,69.05
2023-02-14T17:04:31.265Z,68.66
2023-02-14T17:06:58.181Z,69.18
2023-02-14T17:09:27.230Z,69.07
2023-02-14T17:11:54.307Z,69.03
2023-02-14T17:14:23.060Z,68.78
2023-02-14T17:16:49.542Z,69.12
2023-02-14T17:19:15.968Z,68.81
2023-02-14T17:21:42.616Z,68.73
2023-02-14T17:24:09.037Z,68.98
2023-02-14T17:26:38.037Z,68.58
2023-02-14T17:29:04.514Z,69.07
2023-02-14T17:31:31.012Z,68.93
2023-02-14T17:33:57.520Z,69.11
2023-02-14T17:36:24.300Z,69.02
2023-02-14T17:39:28.870Z,69.03
2023-02-14T17:41:56.733Z,69.08
2023-02-14T17:44:23.162Z,68.86
2023-02-14T17:47:14.880Z,69.09
2023-02-14T17:49:41.333Z,69.02
2023-02-14T17:52:07.792Z,68.92
2023-02-14T17:54:37.546Z,69.03
2023-02-14T17:57:04.940Z,69.31
2023-02-14T17:59:32.051Z,69.38
2023-02-14T18:01:58.870Z,69.34
2023-02-14T18:04:25.400Z,69.42
2023-02-14T18:06:51.853Z,69.38
2023-02-14T18:09:19.714Z,69.16
2023-02-14T18:11:46.973Z,69.60
2023-02-14T18:14:13.416Z,69.56
2023-02-14T18:16:40.347Z,69.66
2023-02-14T18:19:07.365Z,69.51
2023-02-14T18:21:35.606Z,70.10
2023-02-14T18:24:04.877Z,69.81
2023-02-14T18:26:31.538Z,69.98
2023-02-14T18:28:58.183Z,69.82
2023-02-14T18:31:26.818Z,69.71
2023-02-14T18:33:53.758Z,69.88
2023-02-14T18:36:20.760Z,70.19
2023-02-14T18:38:48.045Z,69.86
2023-02-14T18:41:15.552Z,70.31
2023-02-14T18:43:42.093Z,70.16
2023-02-14T18:46:09.574Z,70.07
2023-02-14T18:48:36.258Z,70.47
2023-02-14T18:51:09.586Z,70.10
2023-02-14T18:53:36.488Z,70.44
2023-02-14T18:56:03.879Z,70.32
2023-02-14T18:58:30.576Z,70.43
2023-02-14T19:00:57.556Z,70.60
2023-02-14T19:03:24.128Z,70.53
2023-02-14T19:05:50.832Z,70.61
2023-02-14T19:08:17.313Z,70.74
2023-02-14T19:10:43.762Z,70.96
2023-02-14T19:13:10.206Z,70.69
2023-02-14T19:15:36.663Z,70.73
2023-02-14T19:18:03.292Z,71.11
2023-02-14T19:20:29.748Z,70.76
2023-02-14T19:22:56.195Z,71.00
2023-02-14T19:25:23.107Z,71.58
2023-02-14T19:27:49.576Z,71.67
2023-02-14T19:30:16.211Z,71.73
2023-02-14T19:32:42.660Z,72.55
2023-02-14T19:35:09.155Z,72.21
2023-02-14T19:37:35.649Z,72.05
2023-02-14T19:40:02.283Z,72.39
2023-02-14T19:42:28.724Z,72.69
2023-02-14T19:44:55.143Z,72.85
2023-02-14T19:47:33.595Z,73.09
2023-02-14T19:50:09.097Z,73.30
2023-02-14T19:52:36.245Z,73.31
2023-02-14T19:55:03.827Z,73.25
2023-02-14T19:57:30.296Z,73.57
2023-02-14T19:59:56.745Z,73.25
2023-02-14T20:02:23.564Z,73.24
2023-02-14T20:04:50.138Z,73.70
2023-02-14T20:07:17.481Z,73.99
2023-02-14T20:09:44.010Z,73.70
2023-02-14T20:12:10.510Z,74.09
2023-02-14T20:14:50.490Z,73.88
2023-02-14T20:17:18.208Z,74.12
2023-02-14T20:19:44.639Z,73.88
2023-02-14T20:22:11.140Z,73.47
2023-02-14T20:24:37.714Z,73.66
2023-02-14T20:27:04.256Z,73.75
2023-02-14T20:29:30.829Z,73.68
2023-02-14T20:32:03.608Z,73.79
2023-02-14T20:34:30.182Z,74.06
2023-02-14T20:36:58.649Z,74.28
2023-02-14T20:39:27.392Z,74.15
2023-02-14T20:41:54.270Z,74.08
2023-02-14T20:44:21.898Z,74.28
2023-02-14T20:46:49.302Z,74.65
2023-02-14T20:49:16.047Z,74.47
2023-02-14T20:51:42.697Z,74.10
2023-02-14T20:54:09.184Z,73.78
2023-02-14T20:56:35.689Z,74.36
2023-02-14T20:59:09.771Z,74.21
2023-02-14T21:01:36.412Z,74.67
2023-02-14T21:04:02.955Z,74.99
2023-02-14T21:06:31.444Z,74.81
2023-02-14T21:08:57.937Z,74.93
2023-02-14T21:11:24.455Z,75.23
2023-02-14T21:13:54.952Z,75.35
2023-02-14T21:16:21.499Z,75.84
2023-02-14T21:18:51.724Z,76.42
2023-02-14T21:21:18.906Z,76.84
2023-02-14T21:23:45.383Z,76.77
2023-02-14T21:26:11.891Z,76.27
2023-02-14T21:28:38.311Z,76.67
2023-02-14T21:31:05.347Z,76.75
2023-02-14T21:33:32.964Z,76.42
2023-02-14T21:36:08.824Z,76.49
2023-02-14T21:38:35.319Z,76.64
2023-02-14T21:41:05.785Z,76.87
2023-02-14T21:43:36.121Z,76.81
2023-02-14T21:46:05.012Z,76.46
2023-02-14T21:48:50.279Z,76.34
2023-02-14T21:51:17.138Z,76.46
2023-02-14T21:53:43.646Z,75.98
2023-02-14T21:56:11.183Z,76.16
2023-02-14T21:58:38.918Z,76.02
2023-02-14T22:01:05.923Z,76.14
2023-02-14T22:03:32.877Z,76.12
2023-02-14T22:06:06.044Z,76.42
2023-02-14T22:08:33.132Z,76.16
2023-02-14T22:11:00.415Z,76.68
2023-02-14T22:13:27.674Z,76.61
2023-02-14T22:15:54.140Z,76.69
2023-02-14T22:18:20.666Z,76.54
2023-02-14T22:20:47.222Z,76.93
2023-02-14T22:23:13.791Z,77.22
2023-02-14T22:25:40.437Z,76.64
2023-02-14T22:28:07.100Z,76.73
2023-02-14T22:30:33.630Z,77.25
2023-02-14T22:33:00.276Z,77.04
2023-02-14T22:35:27.110Z,76.88
2023-02-14T22:37:53.599Z,77.09
2023-02-14T22:40:20.052Z,77.00
2023-02-14T22:42:46.526Z,76.98
2023-02-14T22:45:13.069Z,77.41
2023-02-14T22:47:39.627Z,77.30
2023-02-14T22:50:06.349Z,77.41
2023-02-14T22:52:33.900Z,77.39
2023-02-14T22:55:00.606Z,77.25
2023-02-14T22:57:27.158Z,77.65
2023-02-14T22:59:53.678Z,76.98
2023-02-14T23:02:20.141Z,77.21
2023-02-14T23:04:46.831Z,77.41
2023-02-14T23:07:13.350Z,77.42
2023-02-14T23:09:39.844Z,77.17
2023-02-14T23:12:26.332Z,76.88
2023-02-14T23:15:11.419Z,77.58
2023-02-14T23:17:56.534Z,77.64
2023-02-14T23:20:41.727Z,77.06
2023-02-14T23:23:08.213Z,77.12
2023-02-14T23:25:34.685Z,77.69
2023-02-14T23:28:01.284Z,77.54
2023-02-14T23:30:27.770Z,77.67
2023-02-14T23:32:54.772Z,77.35
2023-02-14T23:35:50.324Z,77.53
2023-02-14T23:38:16.933Z,77.38
2023-02-14T23:41:02.210Z,77.48
2023-02-14T23:43:28.672Z,77.17
2023-02-14T23:45:55.161Z,77.31
2023-02-14T23:48:21.637Z,77.60
2023-02-14T23:50:48.112Z,78.08
2023-02-14T23:53:15.345Z,78.10
2023-02-14T23:55:41.789Z,78.00
2023-02-14T23:58:08.251Z,77.60
